sensor_id;sensor_type;location;lat;lon;timestamp;P1;durP1;ratioP1;P2;durP2;ratioP2
70744;SDS011;59284;31.390;34.904;2022-11-23T00:01:45;38.65;;;17.10;;
70744;SDS011;59284;31.390;34.904;2022-11-23T00:04:12;43.80;;;18.90;;
70744;SDS011;59284;31.390;34.904;2022-11-23T00:06:38;37.13;;;15.47;;
70744;SDS011;59284;31.390;34.904;2022-11-23T00:09:05;40.35;;;15.82;;
70744;SDS011;59284;31.390;34.904;2022-11-23T00:11:32;38.88;;;15.27;;
70744;SDS011;59284;31.390;34.904;2022-11-23T00:13:59;33.25;;;15.75;;
70744;SDS011;59284;31.390;34.904;2022-11-23T00:16:25;36.57;;;16.13;;
70744;SDS011;59284;31.390;34.904;2022-11-23T00:18:53;33.45;;;14.93;;
70744;SDS011;59284;31.390;34.904;2022-11-23T00:21:20;37.28;;;14.35;;
70744;SDS011;59284;31.390;34.904;2022-11-23T00:23:46;32.55;;;13.75;;
70744;SDS011;59284;31.390;34.904;2022-11-23T00:26:13;29.63;;;13.90;;
70744;SDS011;59284;31.390;34.904;2022-11-23T00:28:39;28.95;;;13.75;;
70744;SDS011;59284;31.390;34.904;2022-11-23T00:31:06;30.10;;;13.63;;
70744;SDS011;59284;31.390;34.904;2022-11-23T00:33:42;26.23;;;12.55;;
70744;SDS011;59284;31.390;34.904;2022-11-23T00:36:22;26.10;;;13.18;;
70744;SDS011;59284;31.390;34.904;2022-11-23T00:38:49;26.57;;;12.23;;
70744;SDS011;59284;31.390;34.904;2022-11-23T00:41:20;28.83;;;12.25;;
70744;SDS011;59284;31.390;34.904;2022-11-23T00:43:48;32.60;;;12.95;;
70744;SDS011;59284;31.390;34.904;2022-11-23T00:46:14;25.02;;;11.27;;
70744;SDS011;59284;31.390;34.904;2022-11-23T00:48:44;24.05;;;11.85;;
70744;SDS011;59284;31.390;34.904;2022-11-23T00:51:12;27.27;;;11.80;;
70744;SDS011;59284;31.390;34.904;2022-11-23T00:53:39;27.92;;;12.50;;
70744;SDS011;59284;31.390;34.904;2022-11-23T00:56:06;24.08;;;11.52;;
70744;SDS011;59284;31.390;34.904;2022-11-23T00:58:32;23.67;;;11.40;;
70744;SDS011;59284;31.390;34.904;2022-11-23T01:01:03;22.52;;;11.18;;
70744;SDS011;59284;31.390;34.904;2022-11-23T01:03:40;21.63;;;11.73;;
70744;SDS011;59284;31.390;34.904;2022-11-23T01:06:10;27.65;;;11.98;;
70744;SDS011;59284;31.390;34.904;2022-11-23T01:08:37;33.92;;;12.10;;
70744;SDS011;59284;31.390;34.904;2022-11-23T01:11:05;19.70;;;10.15;;
70744;SDS011;59284;31.390;34.904;2022-11-23T01:13:33;28.75;;;10.65;;
70744;SDS011;59284;31.390;34.904;2022-11-23T01:16:00;22.57;;;10.20;;
70744;SDS011;59284;31.390;34.904;2022-11-23T01:18:26;21.60;;;9.40;;
70744;SDS011;59284;31.390;34.904;2022-11-23T01:20:53;21.83;;;8.45;;
70744;SDS011;59284;31.390;34.904;2022-11-23T01:23:19;20.45;;;8.75;;
70744;SDS011;59284;31.390;34.904;2022-11-23T01:25:45;18.93;;;8.90;;
70744;SDS011;59284;31.390;34.904;2022-11-23T01:28:11;17.42;;;8.07;;
70744;SDS011;59284;31.390;34.904;2022-11-23T01:30:37;17.45;;;7.70;;
70744;SDS011;59284;31.390;34.904;2022-11-23T01:33:03;14.37;;;8.07;;
70744;SDS011;59284;31.390;34.904;2022-11-23T01:35:29;18.33;;;8.43;;
70744;SDS011;59284;31.390;34.904;2022-11-23T01:37:55;18.35;;;8.32;;
70744;SDS011;59284;31.390;34.904;2022-11-23T01:40:21;15.50;;;8.13;;
70744;SDS011;59284;31.390;34.904;2022-11-23T01:42:54;15.65;;;8.00;;
70744;SDS011;59284;31.390;34.904;2022-11-23T01:45:32;17.60;;;8.07;;
70744;SDS011;59284;31.390;34.904;2022-11-23T01:47:58;17.42;;;7.97;;
70744;SDS011;59284;31.390;34.904;2022-11-23T01:50:25;15.57;;;8.18;;
70744;SDS011;59284;31.390;34.904;2022-11-23T01:52:51;13.03;;;7.77;;
70744;SDS011;59284;31.390;34.904;2022-11-23T01:55:17;15.45;;;7.38;;
70744;SDS011;59284;31.390;34.904;2022-11-23T01:57:43;17.40;;;7.45;;
70744;SDS011;59284;31.390;34.904;2022-11-23T02:00:10;12.10;;;7.05;;
70744;SDS011;59284;31.390;34.904;2022-11-23T02:02:37;16.00;;;7.27;;
70744;SDS011;59284;31.390;34.904;2022-11-23T02:05:10;15.27;;;7.75;;
70744;SDS011;59284;31.390;34.904;2022-11-23T02:07:37;16.85;;;8.07;;
70744;SDS011;59284;31.390;34.904;2022-11-23T02:10:04;17.60;;;7.65;;
70744;SDS011;59284;31.390;34.904;2022-11-23T02:12:31;10.63;;;6.03;;
70744;SDS011;59284;31.390;34.904;2022-11-23T02:14:56;13.03;;;6.63;;
70744;SDS011;59284;31.390;34.904;2022-11-23T02:17:22;14.45;;;6.28;;
70744;SDS011;59284;31.390;34.904;2022-11-23T02:25:08;12.23;;;6.18;;
70744;SDS011;59284;31.390;34.904;2022-11-23T02:27:40;14.63;;;7.60;;
70744;SDS011;59284;31.390;34.904;2022-11-23T02:30:07;15.27;;;6.70;;
70744;SDS011;59284;31.390;34.904;2022-11-23T02:32:34;13.60;;;5.77;;
70744;SDS011;59284;31.390;34.904;2022-11-23T02:35:01;14.63;;;6.47;;
70744;SDS011;59284;31.390;34.904;2022-11-23T02:37:26;11.15;;;6.20;;
70744;SDS011;59284;31.390;34.904;2022-11-23T02:39:52;10.35;;;6.10;;
70744;SDS011;59284;31.390;34.904;2022-11-23T02:42:21;10.50;;;5.87;;
70744;SDS011;59284;31.390;34.904;2022-11-23T02:47:38;11.25;;;5.65;;
70744;SDS011;59284;31.390;34.904;2022-11-23T02:50:04;11.43;;;5.80;;
70744;SDS011;59284;31.390;34.904;2022-11-23T02:52:30;10.73;;;5.63;;
70744;SDS011;59284;31.390;34.904;2022-11-23T02:54:56;11.85;;;4.93;;
70744;SDS011;59284;31.390;34.904;2022-11-23T02:57:22;12.43;;;5.28;;
70744;SDS011;59284;31.390;34.904;2022-11-23T02:59:48;11.17;;;5.67;;
70744;SDS011;59284;31.390;34.904;2022-11-23T03:02:14;10.88;;;5.75;;
70744;SDS011;59284;31.390;34.904;2022-11-23T03:04:40;15.20;;;5.83;;
70744;SDS011;59284;31.390;34.904;2022-11-23T03:07:06;12.93;;;6.88;;
70744;SDS011;59284;31.390;34.904;2022-11-23T03:09:31;11.95;;;6.28;;
70744;SDS011;59284;31.390;34.904;2022-11-23T03:11:57;12.03;;;7.00;;
70744;SDS011;59284;31.390;34.904;2022-11-23T03:14:26;13.27;;;5.93;;
70744;SDS011;59284;31.390;34.904;2022-11-23T03:16:52;16.75;;;6.38;;
70744;SDS011;59284;31.390;34.904;2022-11-23T03:19:18;12.63;;;6.07;;
70744;SDS011;59284;31.390;34.904;2022-11-23T03:21:43;17.67;;;6.60;;
70744;SDS011;59284;31.390;34.904;2022-11-23T03:24:09;10.43;;;5.70;;
70744;SDS011;59284;31.390;34.904;2022-11-23T03:26:35;11.82;;;5.40;;
70744;SDS011;59284;31.390;34.904;2022-11-23T03:29:01;17.47;;;6.07;;
70744;SDS011;59284;31.390;34.904;2022-11-23T03:31:26;13.53;;;6.53;;
70744;SDS011;59284;31.390;34.904;2022-11-23T03:33:52;11.60;;;6.43;;
70744;SDS011;59284;31.390;34.904;2022-11-23T03:36:19;11.67;;;6.30;;
70744;SDS011;59284;31.390;34.904;2022-11-23T03:38:44;11.93;;;6.38;;
70744;SDS011;59284;31.390;34.904;2022-11-23T03:41:10;15.00;;;6.63;;
70744;SDS011;59284;31.390;34.904;2022-11-23T03:43:36;14.75;;;6.07;;
70744;SDS011;59284;31.390;34.904;2022-11-23T03:46:03;12.60;;;6.07;;
70744;SDS011;59284;31.390;34.904;2022-11-23T03:48:29;12.18;;;6.93;;
70744;SDS011;59284;31.390;34.904;2022-11-23T03:50:54;12.32;;;5.63;;
70744;SDS011;59284;31.390;34.904;2022-11-23T03:53:20;14.00;;;6.60;;
70744;SDS011;59284;31.390;34.904;2022-11-23T03:55:46;9.13;;;5.13;;
70744;SDS011;59284;31.390;34.904;2022-11-23T03:58:11;12.48;;;5.80;;
70744;SDS011;59284;31.390;34.904;2022-11-23T04:00:37;11.43;;;6.13;;
70744;SDS011;59284;31.390;34.904;2022-11-23T04:03:03;9.43;;;5.33;;
70744;SDS011;59284;31.390;34.904;2022-11-23T04:05:29;11.95;;;6.13;;
70744;SDS011;59284;31.390;34.904;2022-11-23T04:07:54;9.90;;;4.77;;
70744;SDS011;59284;31.390;34.904;2022-11-23T04:10:20;15.32;;;6.90;;
70744;SDS011;59284;31.390;34.904;2022-11-23T04:12:49;9.98;;;6.00;;
70744;SDS011;59284;31.390;34.904;2022-11-23T04:15:16;9.77;;;4.60;;
70744;SDS011;59284;31.390;34.904;2022-11-23T04:17:42;10.93;;;5.32;;
70744;SDS011;59284;31.390;34.904;2022-11-23T04:20:08;11.77;;;5.82;;
70744;SDS011;59284;31.390;34.904;2022-11-23T04:22:34;12.05;;;4.80;;
70744;SDS011;59284;31.390;34.904;2022-11-23T04:25:00;9.03;;;5.03;;
70744;SDS011;59284;31.390;34.904;2022-11-23T04:27:26;10.23;;;5.50;;
70744;SDS011;59284;31.390;34.904;2022-11-23T04:29:52;11.48;;;5.80;;
70744;SDS011;59284;31.390;34.904;2022-11-23T04:32:17;13.60;;;5.20;;
70744;SDS011;59284;31.390;34.904;2022-11-23T04:34:43;9.68;;;5.40;;
70744;SDS011;59284;31.390;34.904;2022-11-23T04:37:09;10.73;;;5.10;;
70744;SDS011;59284;31.390;34.904;2022-11-23T04:39:35;12.10;;;4.77;;
70744;SDS011;59284;31.390;34.904;2022-11-23T04:42:00;9.75;;;4.30;;
70744;SDS011;59284;31.390;34.904;2022-11-23T04:44:26;9.47;;;4.60;;
70744;SDS011;59284;31.390;34.904;2022-11-23T04:46:52;9.05;;;4.80;;
70744;SDS011;59284;31.390;34.904;2022-11-23T04:49:17;9.30;;;4.73;;
70744;SDS011;59284;31.390;34.904;2022-11-23T04:51:43;12.18;;;4.35;;
70744;SDS011;59284;31.390;34.904;2022-11-23T04:54:10;8.73;;;4.55;;
70744;SDS011;59284;31.390;34.904;2022-11-23T04:56:35;9.43;;;4.17;;
70744;SDS011;59284;31.390;34.904;2022-11-23T04:59:01;13.77;;;4.47;;
70744;SDS011;59284;31.390;34.904;2022-11-23T05:01:27;9.40;;;4.43;;
70744;SDS011;59284;31.390;34.904;2022-11-23T05:03:54;11.43;;;3.72;;
70744;SDS011;59284;31.390;34.904;2022-11-23T05:06:19;11.07;;;3.93;;
70744;SDS011;59284;31.390;34.904;2022-11-23T05:08:45;8.70;;;3.90;;
70744;SDS011;59284;31.390;34.904;2022-11-23T05:11:11;13.73;;;4.10;;
70744;SDS011;59284;31.390;34.904;2022-11-23T05:13:36;7.63;;;3.67;;
70744;SDS011;59284;31.390;34.904;2022-11-23T05:16:02;10.17;;;3.70;;
70744;SDS011;59284;31.390;34.904;2022-11-23T05:18:28;10.88;;;3.28;;
70744;SDS011;59284;31.390;34.904;2022-11-23T05:20:58;7.17;;;3.20;;
70744;SDS011;59284;31.390;34.904;2022-11-23T05:23:27;9.82;;;3.60;;
70744;SDS011;59284;31.390;34.904;2022-11-23T05:25:54;9.45;;;3.38;;
70744;SDS011;59284;31.390;34.904;2022-11-23T05:29:18;11.05;;;2.90;;
70744;SDS011;59284;31.390;34.904;2022-11-23T05:31:50;7.78;;;2.88;;
70744;SDS011;59284;31.390;34.904;2022-11-23T05:34:26;7.17;;;2.60;;
70744;SDS011;59284;31.390;34.904;2022-11-23T05:37:13;11.13;;;3.28;;
70744;SDS011;59284;31.390;34.904;2022-11-23T05:39:40;16.00;;;3.38;;
70744;SDS011;59284;31.390;34.904;2022-11-23T05:42:07;10.13;;;3.00;;
70744;SDS011;59284;31.390;34.904;2022-11-23T05:45:03;12.32;;;3.75;;
70744;SDS011;59284;31.390;34.904;2022-11-23T05:47:36;8.13;;;2.67;;
70744;SDS011;59284;31.390;34.904;2022-11-23T05:50:20;9.30;;;2.72;;
70744;SDS011;59284;31.390;34.904;2022-11-23T05:52:57;13.93;;;2.47;;
70744;SDS011;59284;31.390;34.904;2022-11-23T05:55:48;11.30;;;2.47;;
70744;SDS011;59284;31.390;34.904;2022-11-23T05:58:35;15.20;;;2.45;;
70744;SDS011;59284;31.390;34.904;2022-11-23T06:01:01;11.67;;;2.93;;
70744;SDS011;59284;31.390;34.904;2022-11-23T06:03:26;10.83;;;2.97;;
70744;SDS011;59284;31.390;34.904;2022-11-23T06:05:52;13.43;;;2.10;;
70744;SDS011;59284;31.390;34.904;2022-11-23T06:08:18;20.08;;;2.47;;
70744;SDS011;59284;31.390;34.904;2022-11-23T06:10:44;9.13;;;2.20;;
70744;SDS011;59284;31.390;34.904;2022-11-23T06:13:09;10.30;;;2.00;;
70744;SDS011;59284;31.390;34.904;2022-11-23T06:15:35;9.03;;;1.80;;
70744;SDS011;59284;31.390;34.904;2022-11-23T06:18:01;10.40;;;2.15;;
70744;SDS011;59284;31.390;34.904;2022-11-23T06:20:29;8.80;;;2.20;;
70744;SDS011;59284;31.390;34.904;2022-11-23T06:22:54;11.93;;;2.70;;
70744;SDS011;59284;31.390;34.904;2022-11-23T06:25:20;13.10;;;2.33;;
70744;SDS011;59284;31.390;34.904;2022-11-23T06:27:55;14.83;;;2.67;;
70744;SDS011;59284;31.390;34.904;2022-11-23T06:30:24;14.23;;;2.47;;
70744;SDS011;59284;31.390;34.904;2022-11-23T06:32:52;13.00;;;2.33;;
70744;SDS011;59284;31.390;34.904;2022-11-23T06:35:18;9.98;;;2.22;;
70744;SDS011;59284;31.390;34.904;2022-11-23T06:37:44;14.47;;;3.03;;
70744;SDS011;59284;31.390;34.904;2022-11-23T06:40:11;9.90;;;2.40;;
70744;SDS011;59284;31.390;34.904;2022-11-23T06:42:37;10.57;;;2.17;;
70744;SDS011;59284;31.390;34.904;2022-11-23T06:45:03;19.73;;;2.43;;
70744;SDS011;59284;31.390;34.904;2022-11-23T06:47:29;10.73;;;2.20;;
70744;SDS011;59284;31.390;34.904;2022-11-23T06:49:55;16.48;;;2.45;;
70744;SDS011;59284;31.390;34.904;2022-11-23T06:52:21;9.57;;;2.43;;
70744;SDS011;59284;31.390;34.904;2022-11-23T06:54:53;5.22;;;2.03;;
70744;SDS011;59284;31.390;34.904;2022-11-23T06:57:29;14.60;;;2.80;;
70744;SDS011;59284;31.390;34.904;2022-11-23T06:59:57;9.07;;;2.42;;
70744;SDS011;59284;31.390;34.904;2022-11-23T07:02:23;10.75;;;2.00;;
70744;SDS011;59284;31.390;34.904;2022-11-23T07:04:49;9.00;;;2.03;;
70744;SDS011;59284;31.390;34.904;2022-11-23T07:07:18;10.70;;;2.60;;
70744;SDS011;59284;31.390;34.904;2022-11-23T07:09:53;12.20;;;2.83;;
70744;SDS011;59284;31.390;34.904;2022-11-23T07:12:19;9.48;;;2.30;;
70744;SDS011;59284;31.390;34.904;2022-11-23T07:14:45;9.93;;;2.60;;
70744;SDS011;59284;31.390;34.904;2022-11-23T07:17:11;13.85;;;2.60;;
70744;SDS011;59284;31.390;34.904;2022-11-23T07:19:37;10.87;;;2.20;;
70744;SDS011;59284;31.390;34.904;2022-11-23T07:22:02;9.00;;;2.20;;
70744;SDS011;59284;31.390;34.904;2022-11-23T07:24:28;10.87;;;2.27;;
70744;SDS011;59284;31.390;34.904;2022-11-23T07:26:54;12.25;;;2.70;;
70744;SDS011;59284;31.390;34.904;2022-11-23T07:29:19;7.77;;;2.37;;
70744;SDS011;59284;31.390;34.904;2022-11-23T07:31:45;11.20;;;2.75;;
70744;SDS011;59284;31.390;34.904;2022-11-23T07:34:11;11.50;;;2.33;;
70744;SDS011;59284;31.390;34.904;2022-11-23T07:36:36;21.50;;;2.72;;
70744;SDS011;59284;31.390;34.904;2022-11-23T07:39:02;6.47;;;2.50;;
70744;SDS011;59284;31.390;34.904;2022-11-23T07:41:28;10.57;;;2.53;;
70744;SDS011;59284;31.390;34.904;2022-11-23T07:43:54;12.82;;;3.25;;
70744;SDS011;59284;31.390;34.904;2022-11-23T07:46:20;8.93;;;2.47;;
70744;SDS011;59284;31.390;34.904;2022-11-23T07:48:46;18.70;;;2.95;;
70744;SDS011;59284;31.390;34.904;2022-11-23T07:51:12;10.57;;;2.40;;
70744;SDS011;59284;31.390;34.904;2022-11-23T07:53:37;12.00;;;2.47;;
70744;SDS011;59284;31.390;34.904;2022-11-23T07:56:03;12.03;;;2.50;;
70744;SDS011;59284;31.390;34.904;2022-11-23T07:58:29;12.00;;;2.25;;
70744;SDS011;59284;31.390;34.904;2022-11-23T08:00:57;7.82;;;2.63;;
70744;SDS011;59284;31.390;34.904;2022-11-23T08:03:23;11.50;;;2.50;;
70744;SDS011;59284;31.390;34.904;2022-11-23T08:05:48;13.43;;;2.67;;
70744;SDS011;59284;31.390;34.904;2022-11-23T08:08:14;10.13;;;3.05;;
70744;SDS011;59284;31.390;34.904;2022-11-23T08:10:40;10.53;;;3.10;;
70744;SDS011;59284;31.390;34.904;2022-11-23T08:13:11;14.93;;;3.10;;
70744;SDS011;59284;31.390;34.904;2022-11-23T08:15:37;13.27;;;3.03;;
70744;SDS011;59284;31.390;34.904;2022-11-23T08:18:02;13.33;;;2.77;;
70744;SDS011;59284;31.390;34.904;2022-11-23T08:20:29;15.40;;;2.97;;
70744;SDS011;59284;31.390;34.904;2022-11-23T08:22:56;13.10;;;2.20;;
70744;SDS011;59284;31.390;34.904;2022-11-23T08:25:22;9.38;;;2.78;;
70744;SDS011;59284;31.390;34.904;2022-11-23T08:28:02;13.80;;;2.67;;
70744;SDS011;59284;31.390;34.904;2022-11-23T08:30:30;8.73;;;2.78;;
70744;SDS011;59284;31.390;34.904;2022-11-23T08:32:57;12.90;;;2.95;;
70744;SDS011;59284;31.390;34.904;2022-11-23T08:35:22;10.90;;;2.57;;
70744;SDS011;59284;31.390;34.904;2022-11-23T08:37:48;11.15;;;2.80;;
70744;SDS011;59284;31.390;34.904;2022-11-23T08:40:14;10.50;;;2.50;;
70744;SDS011;59284;31.390;34.904;2022-11-23T08:42:39;9.90;;;2.28;;
70744;SDS011;59284;31.390;34.904;2022-11-23T08:45:05;10.02;;;2.75;;
70744;SDS011;59284;31.390;34.904;2022-11-23T08:47:32;9.03;;;2.20;;
70744;SDS011;59284;31.390;34.904;2022-11-23T08:49:58;12.65;;;2.03;;
70744;SDS011;59284;31.390;34.904;2022-11-23T08:52:24;13.02;;;2.42;;
70744;SDS011;59284;31.390;34.904;2022-11-23T08:54:50;14.20;;;2.88;;
70744;SDS011;59284;31.390;34.904;2022-11-23T08:57:16;9.90;;;2.33;;
70744;SDS011;59284;31.390;34.904;2022-11-23T08:59:41;13.15;;;2.95;;
70744;SDS011;59284;31.390;34.904;2022-11-23T09:02:09;12.70;;;2.70;;
70744;SDS011;59284;31.390;34.904;2022-11-23T09:04:36;10.48;;;2.63;;
70744;SDS011;59284;31.390;34.904;2022-11-23T09:07:03;11.25;;;2.47;;
70744;SDS011;59284;31.390;34.904;2022-11-23T09:09:29;8.83;;;2.10;;
70744;SDS011;59284;31.390;34.904;2022-11-23T09:11:54;11.45;;;2.55;;
70744;SDS011;59284;31.390;34.904;2022-11-23T09:14:20;13.70;;;1.90;;
70744;SDS011;59284;31.390;34.904;2022-11-23T09:16:46;9.52;;;2.53;;
70744;SDS011;59284;31.390;34.904;2022-11-23T09:19:12;9.67;;;2.57;;
70744;SDS011;59284;31.390;34.904;2022-11-23T09:21:38;8.35;;;2.38;;
70744;SDS011;59284;31.390;34.904;2022-11-23T09:24:06;5.50;;;1.70;;
70744;SDS011;59284;31.390;34.904;2022-11-23T09:26:34;12.18;;;3.05;;
70744;SDS011;59284;31.390;34.904;2022-11-23T09:29:01;24.45;;;4.50;;
70744;SDS011;59284;31.390;34.904;2022-11-23T09:31:28;14.67;;;4.03;;
70744;SDS011;59284;31.390;34.904;2022-11-23T09:33:53;13.25;;;3.38;;
70744;SDS011;59284;31.390;34.904;2022-11-23T09:36:19;8.40;;;2.30;;
70744;SDS011;59284;31.390;34.904;2022-11-23T09:38:47;9.93;;;3.10;;
70744;SDS011;59284;31.390;34.904;2022-11-23T09:41:41;7.75;;;2.67;;
70744;SDS011;59284;31.390;34.904;2022-11-23T09:44:01;10.77;;;2.78;;
70744;SDS011;59284;31.390;34.904;2022-11-23T09:52:15;13.15;;;2.42;;
70744;SDS011;59284;31.390;34.904;2022-11-23T09:54:44;6.63;;;2.30;;
70744;SDS011;59284;31.390;34.904;2022-11-23T09:57:16;9.63;;;2.57;;
70744;SDS011;59284;31.390;34.904;2022-11-23T09:59:51;11.82;;;2.00;;
70744;SDS011;59284;31.390;34.904;2022-11-23T10:02:23;7.35;;;2.00;;
70744;SDS011;59284;31.390;34.904;2022-11-23T10:04:53;8.18;;;2.00;;
70744;SDS011;59284;31.390;34.904;2022-11-23T10:12:40;5.85;;;2.30;;
70744;SDS011;59284;31.390;34.904;2022-11-23T10:16:01;8.35;;;2.95;;
70744;SDS011;59284;31.390;34.904;2022-11-23T10:24:16;11.87;;;2.20;;
70744;SDS011;59284;31.390;34.904;2022-11-23T10:26:48;5.68;;;2.20;;
70744;SDS011;59284;31.390;34.904;2022-11-23T10:29:16;9.02;;;2.30;;
70744;SDS011;59284;31.390;34.904;2022-11-23T10:31:50;6.47;;;2.25;;
70744;SDS011;59284;31.390;34.904;2022-11-23T10:34:23;10.50;;;2.22;;
70744;SDS011;59284;31.390;34.904;2022-11-23T10:36:50;6.17;;;2.23;;
70744;SDS011;59284;31.390;34.904;2022-11-23T10:39:23;11.07;;;2.47;;
70744;SDS011;59284;31.390;34.904;2022-11-23T10:41:50;12.23;;;2.60;;
70744;SDS011;59284;31.390;34.904;2022-11-23T10:44:22;8.30;;;2.07;;
70744;SDS011;59284;31.390;34.904;2022-11-23T10:46:52;8.43;;;2.55;;
70744;SDS011;59284;31.390;34.904;2022-11-23T10:49:19;6.13;;;1.98;;
70744;SDS011;59284;31.390;34.904;2022-11-23T10:52:00;8.32;;;1.90;;
70744;SDS011;59284;31.390;34.904;2022-11-23T10:59:57;8.73;;;2.10;;
70744;SDS011;59284;31.390;34.904;2022-11-23T11:02:23;9.10;;;2.42;;
70744;SDS011;59284;31.390;34.904;2022-11-23T11:04:50;5.38;;;2.03;;
70744;SDS011;59284;31.390;34.904;2022-11-23T11:07:35;4.00;;;1.80;;
70744;SDS011;59284;31.390;34.904;2022-11-23T11:10:02;6.85;;;2.10;;
70744;SDS011;59284;31.390;34.904;2022-11-23T11:12:31;7.80;;;1.80;;
70744;SDS011;59284;31.390;34.904;2022-11-23T11:17:33;8.15;;;2.55;;
70744;SDS011;59284;31.390;34.904;2022-11-23T11:20:00;9.00;;;2.00;;
70744;SDS011;59284;31.390;34.904;2022-11-23T11:22:47;7.07;;;2.35;;
70744;SDS011;59284;31.390;34.904;2022-11-23T11:25:25;9.40;;;2.20;;
70744;SDS011;59284;31.390;34.904;2022-11-23T11:28:03;8.50;;;2.00;;
70744;SDS011;59284;31.390;34.904;2022-11-23T11:30:47;8.15;;;2.22;;
70744;SDS011;59284;31.390;34.904;2022-11-23T11:33:39;6.43;;;2.42;;
70744;SDS011;59284;31.390;34.904;2022-11-23T11:36:12;10.73;;;2.70;;
70744;SDS011;59284;31.390;34.904;2022-11-23T11:38:40;6.82;;;1.85;;
70744;SDS011;59284;31.390;34.904;2022-11-23T11:41:10;5.63;;;2.17;;
70744;SDS011;59284;31.390;34.904;2022-11-23T11:43:46;10.90;;;2.20;;
70744;SDS011;59284;31.390;34.904;2022-11-23T11:46:15;6.88;;;2.10;;
70744;SDS011;59284;31.390;34.904;2022-11-23T11:48:50;7.70;;;2.10;;
70744;SDS011;59284;31.390;34.904;2022-11-23T11:51:21;8.23;;;1.95;;
70744;SDS011;59284;31.390;34.904;2022-11-23T11:53:58;7.63;;;2.78;;
70744;SDS011;59284;31.390;34.904;2022-11-23T11:56:35;9.50;;;2.13;;
70744;SDS011;59284;31.390;34.904;2022-11-23T11:59:15;9.60;;;2.40;;
70744;SDS011;59284;31.390;34.904;2022-11-23T12:12:54;6.00;;;2.05;;
70744;SDS011;59284;31.390;34.904;2022-11-23T12:15:27;10.23;;;2.50;;
70744;SDS011;59284;31.390;34.904;2022-11-23T12:18:15;6.60;;;2.42;;
70744;SDS011;59284;31.390;34.904;2022-11-23T12:20:59;7.93;;;2.58;;
70744;SDS011;59284;31.390;34.904;2022-11-23T12:26:39;5.40;;;2.58;;
70744;SDS011;59284;31.390;34.904;2022-11-23T12:41:00;5.65;;;2.03;;
70744;SDS011;59284;31.390;34.904;2022-11-23T12:43:48;6.93;;;2.03;;
70744;SDS011;59284;31.390;34.904;2022-11-23T12:46:22;7.70;;;2.28;;
70744;SDS011;59284;31.390;34.904;2022-11-23T12:54:55;10.02;;;2.33;;
70744;SDS011;59284;31.390;34.904;2022-11-23T12:58:00;8.27;;;2.20;;
70744;SDS011;59284;31.390;34.904;2022-11-23T13:00:26;14.23;;;2.83;;
70744;SDS011;59284;31.390;34.904;2022-11-23T13:03:18;6.38;;;2.00;;
70744;SDS011;59284;31.390;34.904;2022-11-23T13:06:35;10.77;;;2.30;;
70744;SDS011;59284;31.390;34.904;2022-11-23T13:14:48;8.48;;;2.00;;
70744;SDS011;59284;31.390;34.904;2022-11-23T13:17:54;7.32;;;2.33;;
70744;SDS011;59284;31.390;34.904;2022-11-23T13:23:17;7.20;;;2.20;;
70744;SDS011;59284;31.390;34.904;2022-11-23T13:26:30;10.10;;;2.57;;
70744;SDS011;59284;31.390;34.904;2022-11-23T13:28:36;6.85;;;2.25;;
70744;SDS011;59284;31.390;34.904;2022-11-23T13:33:40;13.95;;;3.28;;
70744;SDS011;59284;31.390;34.904;2022-11-23T13:36:08;17.00;;;4.17;;
70744;SDS011;59284;31.390;34.904;2022-11-23T13:38:37;16.67;;;4.13;;
70744;SDS011;59284;31.390;34.904;2022-11-23T13:41:54;16.00;;;4.32;;
70744;SDS011;59284;31.390;34.904;2022-11-23T13:46:58;20.25;;;5.00;;
70744;SDS011;59284;31.390;34.904;2022-11-23T13:49:34;22.97;;;4.27;;
70744;SDS011;59284;31.390;34.904;2022-11-23T13:57:35;16.90;;;4.70;;
70744;SDS011;59284;31.390;34.904;2022-11-23T14:11:26;10.50;;;4.27;;
70744;SDS011;59284;31.390;34.904;2022-11-23T14:13:53;13.88;;;4.57;;
70744;SDS011;59284;31.390;34.904;2022-11-23T14:28:20;17.35;;;6.13;;
70744;SDS011;59284;31.390;34.904;2022-11-23T14:42:10;12.90;;;5.85;;
70744;SDS011;59284;31.390;34.904;2022-11-23T14:44:39;19.10;;;6.63;;
70744;SDS011;59284;31.390;34.904;2022-11-23T14:47:06;22.30;;;6.32;;
70744;SDS011;59284;31.390;34.904;2022-11-23T14:49:33;13.45;;;5.57;;
70744;SDS011;59284;31.390;34.904;2022-11-23T14:52:00;24.53;;;6.03;;
70744;SDS011;59284;31.390;34.904;2022-11-23T14:54:29;15.98;;;5.93;;
70744;SDS011;59284;31.390;34.904;2022-11-23T14:56:57;20.63;;;5.50;;
70744;SDS011;59284;31.390;34.904;2022-11-23T14:59:31;15.27;;;6.10;;
70744;SDS011;59284;31.390;34.904;2022-11-23T15:02:23;15.60;;;5.97;;
70744;SDS011;59284;31.390;34.904;2022-11-23T15:07:49;15.68;;;6.10;;
70744;SDS011;59284;31.390;34.904;2022-11-23T15:13:16;18.40;;;5.85;;
70744;SDS011;59284;31.390;34.904;2022-11-23T15:15:45;17.63;;;5.47;;
70744;SDS011;59284;31.390;34.904;2022-11-23T15:18:24;13.53;;;5.70;;
70744;SDS011;59284;31.390;34.904;2022-11-23T15:20:52;21.70;;;5.43;;
70744;SDS011;59284;31.390;34.904;2022-11-23T15:23:22;25.80;;;6.75;;
70744;SDS011;59284;31.390;34.904;2022-11-23T15:25:53;16.38;;;5.78;;
70744;SDS011;59284;31.390;34.904;2022-11-23T15:28:27;17.85;;;5.85;;
70744;SDS011;59284;31.390;34.904;2022-11-23T15:30:56;19.87;;;6.03;;
70744;SDS011;59284;31.390;34.904;2022-11-23T15:33:22;18.33;;;6.00;;
70744;SDS011;59284;31.390;34.904;2022-11-23T15:35:48;17.42;;;6.07;;
70744;SDS011;59284;31.390;34.904;2022-11-23T15:38:17;18.13;;;5.55;;
70744;SDS011;59284;31.390;34.904;2022-11-23T15:40:44;17.23;;;5.60;;
70744;SDS011;59284;31.390;34.904;2022-11-23T15:43:17;13.75;;;5.30;;
70744;SDS011;59284;31.390;34.904;2022-11-23T15:48:20;15.27;;;5.80;;
70744;SDS011;59284;31.390;34.904;2022-11-23T15:50:54;23.33;;;5.82;;
70744;SDS011;59284;31.390;34.904;2022-11-23T15:53:26;13.85;;;5.75;;
70744;SDS011;59284;31.390;34.904;2022-11-23T15:55:54;19.88;;;6.30;;
70744;SDS011;59284;31.390;34.904;2022-11-23T15:58:24;20.02;;;5.82;;
70744;SDS011;59284;31.390;34.904;2022-11-23T16:00:52;17.03;;;6.00;;
70744;SDS011;59284;31.390;34.904;2022-11-23T16:06:07;20.90;;;5.95;;
70744;SDS011;59284;31.390;34.904;2022-11-23T16:08:36;19.08;;;7.63;;
70744;SDS011;59284;31.390;34.904;2022-11-23T16:11:04;21.80;;;7.03;;
70744;SDS011;59284;31.390;34.904;2022-11-23T16:13:42;18.10;;;5.97;;
70744;SDS011;59284;31.390;34.904;2022-11-23T16:16:13;16.60;;;6.68;;
70744;SDS011;59284;31.390;34.904;2022-11-23T16:18:45;19.80;;;6.40;;
70744;SDS011;59284;31.390;34.904;2022-11-23T16:21:17;15.40;;;7.18;;
70744;SDS011;59284;31.390;34.904;2022-11-23T16:26:15;21.67;;;7.28;;
70744;SDS011;59284;31.390;34.904;2022-11-23T16:28:55;21.50;;;7.18;;
70744;SDS011;59284;31.390;34.904;2022-11-23T16:33:56;18.60;;;7.15;;
70744;SDS011;59284;31.390;34.904;2022-11-23T16:36:22;27.70;;;7.13;;
70744;SDS011;59284;31.390;34.904;2022-11-23T16:38:51;16.20;;;6.65;;
70744;SDS011;59284;31.390;34.904;2022-11-23T16:41:17;17.83;;;6.87;;
70744;SDS011;59284;31.390;34.904;2022-11-23T16:43:43;20.13;;;7.15;;
70744;SDS011;59284;31.390;34.904;2022-11-23T16:46:08;17.13;;;6.73;;
70744;SDS011;59284;31.390;34.904;2022-11-23T16:48:36;20.73;;;7.13;;
70744;SDS011;59284;31.390;34.904;2022-11-23T16:51:04;21.05;;;7.43;;
70744;SDS011;59284;31.390;34.904;2022-11-23T16:53:30;29.33;;;7.88;;